Time;durP1;ratioP1;P1;durP2;ratioP2;P2;SDS_P1;SDS_P2;PMS_P1;PMS_P2;Temp;Humidity;BMP_temperature;BMP_pressure;BME280_temperature;BME280_humidity;BME280_pressure;Samples;Min_cycle;Max_cycle;Signal;HPM_P1;HPM_P2
2023/11/17 00:00:41;;;;;;;33.35;17.37;;;;;;;3.23;91.18;99847.58;1729640;81;27593;-49
2023/11/17 00:03:09;;;;;;;33.67;17.50;;;;;;;3.22;91.00;99855.34;1757402;81;25751;-50
2023/11/17 00:05:35;;;;;;;29.40;16.32;;;;;;;3.22;91.12;99851.34;1757539;81;25198;-49
2023/11/17 00:08:03;;;;;;;32.30;16.87;;;;;;;3.23;91.09;99854.26;1757610;81;25537;-49
2023/11/17 00:10:29;;;;;;;33.63;16.93;;;;;;;3.22;90.91;99846.50;1757585;81;25586;-48
2023/11/17 00:12:56;;;;;;;32.53;16.35;;;;;;;3.22;91.08;99847.33;1757549;81;27572;-48
2023/11/17 00:15:23;;;;;;;30.00;15.85;;;;;;;3.24;91.21;99853.20;1757406;81;25565;-50
2023/11/17 00:17:51;;;;;;;30.20;16.95;;;;;;;3.26;91.16;99851.59;1757502;81;25619;-49
2023/11/17 00:20:20;;;;;;;30.88;15.70;;;;;;;3.25;90.97;99848.13;1757516;81;25645;-52
2023/11/17 00:22:49;;;;;;;26.37;15.83;;;;;;;3.25;91.04;99845.45;1757533;81;25413;-49
2023/11/17 00:25:17;;;;;;;29.32;16.27;;;;;;;3.26;90.93;99846.25;1757555;81;33007;-50
2023/11/17 00:27:44;;;;;;;27.70;15.50;;;;;;;3.26;90.88;99847.05;1757504;81;25529;-49
2023/11/17 00:30:14;;;;;;;31.02;16.05;;;;;;;3.24;90.78;99842.51;1757544;81;25441;-49
2023/11/17 00:32:41;;;;;;;24.72;14.63;;;;;;;3.26;90.92;99848.92;1757597;81;32374;-49
2023/11/17 00:35:09;;;;;;;28.57;15.75;;;;;;;3.27;90.82;99842.48;1757528;81;25456;-49
2023/11/17 00:37:38;;;;;;;23.40;13.68;;;;;;;3.26;90.50;99847.05;1757500;81;27535;-49
2023/11/17 00:40:07;;;;;;;24.40;13.23;;;;;;;3.26;90.26;99840.91;1757486;81;25739;-50
2023/11/17 00:42:34;;;;;;;19.98;12.43;;;;;;;3.25;90.18;99832.09;1757822;81;25613;-48
2023/11/17 00:45:02;;;;;;;21.40;12.73;;;;;;;3.24;89.94;99831.81;1757616;81;25585;-48
2023/11/17 00:47:28;;;;;;;21.33;13.28;;;;;;;3.24;89.80;99824.34;1757678;81;25567;-49
2023/11/17 00:49:55;;;;;;;23.67;13.20;;;;;;;3.24;89.59;99829.69;1757706;81;28291;-49
2023/11/17 00:52:22;;;;;;;18.12;12.07;;;;;;;3.23;89.49;99824.86;1757578;81;25563;-50
2023/11/17 00:54:49;;;;;;;26.33;13.13;;;;;;;3.23;89.59;99824.06;1757627;81;25610;-49
2023/11/17 00:57:19;;;;;;;20.55;12.25;;;;;;;3.24;89.50;99831.02;1757612;81;25507;-50
2023/11/17 00:59:45;;;;;;;23.10;12.58;;;;;;;3.24;89.40;99821.67;1757790;81;25565;-50
2023/11/17 01:02:12;;;;;;;19.42;11.93;;;;;;;3.23;89.08;99814.70;1757612;81;27470;-49
2023/11/17 01:04:39;;;;;;;21.10;11.90;;;;;;;3.21;89.08;99818.98;1757501;81;25425;-48
2023/11/17 01:07:05;;;;;;;20.62;12.37;;;;;;;3.22;88.98;99817.11;1757631;81;29868;-48
2023/11/17 01:09:32;;;;;;;19.52;11.68;;;;;;;3.21;89.02;99810.17;1757609;81;26029;-48
2023/11/17 01:11:58;;;;;;;18.62;10.50;;;;;;;3.22;89.23;99811.25;1757143;81;25554;-49
2023/11/17 01:14:25;;;;;;;21.75;12.05;;;;;;;3.22;88.70;99813.92;1757048;81;27484;-48
2023/11/17 01:16:52;;;;;;;17.87;10.50;;;;;;;3.22;88.92;99809.09;1756699;81;25762;-51
2023/11/17 01:19:20;;;;;;;18.80;11.30;;;;;;;3.21;88.81;99808.84;1757640;81;25609;-49
2023/11/17 01:21:47;;;;;;;18.62;11.08;;;;;;;3.20;88.74;99809.36;1757585;81;26104;-48
2023/11/17 01:24:13;;;;;;;18.80;11.10;;;;;;;3.20;88.69;99804.01;1757725;81;25413;-48
2023/11/17 01:26:40;;;;;;;20.17;12.05;;;;;;;3.19;88.72;99806.44;1758554;81;27489;-49
2023/11/17 01:29:08;;;;;;;19.15;11.65;;;;;;;3.21;88.92;99799.48;1759427;81;25825;-48
2023/11/17 01:31:35;;;;;;;18.00;11.60;;;;;;;3.21;88.54;99802.95;1759519;81;25594;-49
2023/11/17 01:34:01;;;;;;;20.17;11.65;;;;;;;3.20;88.53;99798.66;1759411;81;25611;-48
2023/11/17 01:36:28;;;;;;;21.55;12.50;;;;;;;3.16;88.62;99793.61;1759481;81;25480;-48
2023/11/17 01:38:54;;;;;;;22.62;12.85;;;;;;;3.15;88.53;99794.67;1727455;81;28070;-49
2023/11/17 01:41:23;;;;;;;19.80;11.95;;;;;;;3.13;88.55;99795.48;1727598;81;25648;-48
2023/11/17 01:43:50;;;;;;;23.52;12.98;;;;;;;3.09;88.55;99792.55;1759647;81;25429;-49
2023/11/17 01:46:19;;;;;;;19.80;11.43;;;;;;;3.05;88.66;99783.49;1743527;82;25501;-48
2023/11/17 01:48:46;;;;;;;20.52;11.45;;;;;;;3.03;88.83;99792.32;1644207;84;25501;-49
2023/11/17 01:51:14;;;;;;;19.27;12.30;;;;;;;2.99;88.75;99790.70;1759686;81;25844;-48
2023/11/17 01:53:41;;;;;;;21.35;12.35;;;;;;;2.99;89.12;99784.02;1759525;81;25416;-49
2023/11/17 01:56:09;;;;;;;18.67;11.35;;;;;;;2.98;89.07;99785.66;1759705;81;25555;-48
2023/11/17 01:58:36;;;;;;;17.82;10.93;;;;;;;2.92;88.79;99787.52;1743603;82;25619;-48
2023/11/17 02:01:08;;;;;;;17.52;11.20;;;;;;;2.86;88.61;99781.94;1696382;84;25451;-48
2023/11/17 02:03:38;;;;;;;19.52;11.75;;;;;;;2.82;88.83;99780.85;1727370;81;27983;-48
2023/11/17 02:06:14;;;;;;;19.27;12.13;;;;;;;2.80;89.00;99776.32;1665657;84;25673;-48
2023/11/17 02:09:00;;;;;;;17.35;11.33;;;;;;;2.78;89.15;99779.26;1724422;83;25424;-48
2023/11/17 02:11:35;;;;;;;21.30;11.70;;;;;;;2.75;89.06;99785.13;1741381;82;27039;-49
2023/11/17 02:14:21;;;;;;;17.60;11.33;;;;;;;2.75;89.21;99793.69;1747048;82;25578;-48
2023/11/17 02:16:53;;;;;;;19.70;12.25;;;;;;;2.75;89.37;99794.48;1749020;81;28233;-48
2023/11/17 02:19:36;;;;;;;25.57;12.55;;;;;;;2.73;89.26;99787.83;1748929;82;25863;-49
2023/11/17 02:22:10;;;;;;;18.55;11.50;;;;;;;2.72;89.40;99782.20;1749075;81;25436;-49
2023/11/17 02:24:57;;;;;;;16.32;10.48;;;;;;;2.71;89.33;99785.97;1749022;82;26076;-50
2023/11/17 02:27:59;;;;;;;15.20;10.58;;;;;;;2.68;89.35;99783.28;1719309;81;25843;-49
2023/11/17 02:30:34;;;;;;;19.05;10.38;;;;;;;2.65;89.16;99785.69;1741585;82;28099;-49
2023/11/17 02:33:07;;;;;;;17.05;11.03;;;;;;;2.63;89.18;99783.28;1741502;82;25547;-49
2023/11/17 02:35:30;;;;;;;17.92;10.35;;;;;;;2.60;89.11;99781.14;1740586;82;25607;-49
2023/11/17 02:38:04;;;;;;;16.15;10.15;;;;;;;2.58;88.95;99790.75;1741559;82;25578;-49
2023/11/17 02:40:32;;;;;;;16.17;9.60;;;;;;;2.56;89.12;99792.90;1709446;82;25551;-48
2023/11/17 02:43:07;;;;;;;14.30;9.30;;;;;;;2.55;89.07;99791.28;1741577;82;27501;-48
2023/11/17 02:45:36;;;;;;;15.75;10.63;;;;;;;2.54;89.06;99785.70;1740965;82;25847;-48
2023/11/17 02:48:00;;;;;;;18.87;10.40;;;;;;;2.54;89.08;99788.91;1741285;82;32485;-48
2023/11/17 02:50:38;;;;;;;16.15;9.48;;;;;;;2.53;89.02;99788.09;1741551;82;25660;-48
2023/11/17 02:53:23;;;;;;;16.73;10.23;;;;;;;2.52;89.04;99791.84;1740888;82;25586;-49
2023/11/17 02:55:48;;;;;;;15.45;9.73;;;;;;;2.51;88.90;99786.23;1740946;81;27851;-48
2023/11/17 02:58:18;;;;;;;16.12;10.00;;;;;;;2.51;88.75;99785.44;1716383;82;25489;-48
2023/11/17 03:00:51;;;;;;;16.48;9.48;;;;;;;2.51;89.11;99786.23;1741534;82;25540;-49
2023/11/17 03:03:16;;;;;;;16.17;9.93;;;;;;;2.53;89.01;99785.96;1741105;82;25638;-49
2023/11/17 03:05:43;;;;;;;15.45;9.55;;;;;;;2.53;89.01;99785.96;1741563;82;25449;-49
2023/11/17 03:08:10;;;;;;;14.35;9.43;;;;;;;2.53;88.81;99792.64;1741500;82;27508;-49
2023/11/17 03:10:37;;;;;;;15.10;9.73;;;;;;;2.53;88.82;99792.64;1741486;82;25858;-49
2023/11/17 03:13:03;;;;;;;15.58;9.75;;;;;;;2.51;88.74;99792.11;1741565;82;25587;-49
2023/11/17 03:15:30;;;;;;;17.77;10.30;;;;;;;2.53;88.88;99788.63;1741508;82;25525;-52
2023/11/17 03:17:57;;;;;;;16.35;10.15;;;;;;;2.54;89.07;99791.03;1741596;82;25481;-49
2023/11/17 03:20:24;;;;;;;14.10;9.20;;;;;;;2.57;89.22;99787.02;1716446;82;28253;-48
2023/11/17 03:22:51;;;;;;;15.32;10.08;;;;;;;2.60;89.22;99789.95;1741446;82;25423;-49
2023/11/17 03:25:18;;;;;;;15.15;8.88;;;;;;;2.63;88.96;99798.52;1741516;82;25635;-48
2023/11/17 03:27:50;;;;;;;14.40;9.30;;;;;;;2.63;88.75;99798.52;1693761;83;25485;-50
2023/11/17 03:30:17;;;;;;;12.05;8.98;;;;;;;2.63;88.72;99798.52;1709854;83;25569;-48
2023/11/17 03:32:45;;;;;;;12.30;7.25;;;;;;;2.62;88.74;99791.02;1711032;83;28141;-48
2023/11/17 03:35:13;;;;;;;18.75;9.00;;;;;;;2.63;88.83;99791.84;1709670;83;25406;-50
2023/11/17 03:37:39;;;;;;;15.08;9.78;;;;;;;2.63;88.90;99789.17;1710957;83;25636;-48
2023/11/17 03:40:11;;;;;;;13.85;9.25;;;;;;;2.63;88.86;99790.50;1710872;83;25586;-49
2023/11/17 03:42:37;;;;;;;14.58;9.50;;;;;;;2.61;88.96;99778.20;1710884;83;25482;-48
2023/11/17 03:45:08;;;;;;;14.30;9.08;;;;;;;2.62;89.06;99774.99;1710903;83;27555;-49
2023/11/17 03:47:35;;;;;;;13.58;9.20;;;;;;;2.64;89.23;99778.22;1710907;83;25628;-48
2023/11/17 03:50:05;;;;;;;13.78;9.43;;;;;;;2.66;89.30;99779.30;1710938;83;25448;-48
2023/11/17 03:52:32;;;;;;;14.43;9.55;;;;;;;2.65;89.28;99779.02;1711048;83;26157;-49
2023/11/17 03:55:00;;;;;;;15.75;9.30;;;;;;;2.64;89.51;99776.88;1710937;83;25545;-49
2023/11/17 03:57:28;;;;;;;15.60;9.33;;;;;;;2.64;89.63;99788.91;1710901;83;28062;-49
2023/11/17 03:59:57;;;;;;;14.70;10.23;;;;;;;2.65;90.01;99783.81;1710857;83;25422;-49
2023/11/17 04:02:24;;;;;;;14.40;9.15;;;;;;;2.65;90.04;99783.02;1710957;83;25632;-48
2023/11/17 04:04:50;;;;;;;15.08;8.85;;;;;;;2.64;90.10;99776.06;1710912;83;25516;-49
2023/11/17 04:07:19;;;;;;;13.30;8.85;;;;;;;2.63;90.20;99779.83;1710960;83;25487;-49
2023/11/17 04:09:49;;;;;;;15.47;9.93;;;;;;;2.61;90.26;99772.08;1711173;83;27550;-49
2023/11/17 04:12:16;;;;;;;14.18;9.05;;;;;;;2.56;90.25;99771.54;1710838;83;25731;-49
2023/11/17 04:14:45;;;;;;;12.90;8.68;;;;;;;2.54;90.35;99777.69;1710994;83;25410;-49
2023/11/17 04:17:14;;;;;;;21.17;13.38;;;;;;;2.53;90.54;99768.06;1684599;83;25604;-49
2023/11/17 04:19:41;;;;;;;25.92;17.10;;;;;;;2.52;90.60;99773.16;1711245;83;25490;-48
2023/11/17 04:22:09;;;;;;;13.98;9.25;;;;;;;2.49;90.58;99775.02;1711065;83;27492;-49
2023/11/17 04:24:37;;;;;;;16.80;9.68;;;;;;;2.48;90.71;99768.61;1679657;83;25292;-49
2023/11/17 04:27:07;;;;;;;14.45;9.43;;;;;;;2.46;90.63;99770.20;1715176;81;25475;-49
2023/11/17 04:29:33;;;;;;;15.50;10.05;;;;;;;2.44;90.69;99771.02;1726437;83;25582;-48
2023/11/17 04:32:00;;;;;;;18.77;11.35;;;;;;;2.45;91.00;99771.81;1726535;83;25592;-49
2023/11/17 04:34:27;;;;;;;18.02;10.55;;;;;;;2.44;91.06;99771.02;1726196;83;27981;-48
2023/11/17 04:36:56;;;;;;;16.70;10.50;;;;;;;2.43;91.11;99765.40;1726472;83;25576;-49
2023/11/17 04:39:24;;;;;;;16.87;9.63;;;;;;;2.44;91.23;99768.34;1726180;83;25510;-48
2023/11/17 04:41:51;;;;;;;17.30;9.55;;;;;;;2.42;91.26;99763.27;1726538;83;25950;-48
2023/11/17 04:44:19;;;;;;;16.20;9.60;;;;;;;2.42;91.27;99761.94;1726512;83;25417;-49
2023/11/17 04:46:48;;;;;;;16.67;10.45;;;;;;;2.44;91.33;99764.34;1726474;83;28244;-48
2023/11/17 04:49:15;;;;;;;19.80;11.33;;;;;;;2.47;91.34;99764.33;1726652;83;25588;-49
2023/11/17 04:51:46;;;;;;;17.67;10.18;;;;;;;2.46;91.30;99770.20;1726423;83;25384;-48
2023/11/17 04:54:14;;;;;;;15.13;10.25;;;;;;;2.45;91.33;99773.94;1698675;83;25649;-48
2023/11/17 04:56:43;;;;;;;14.98;9.95;;;;;;;2.46;91.17;99777.42;1726454;83;25418;-48
2023/11/17 04:59:10;;;;;;;17.35;9.75;;;;;;;2.45;91.32;99777.94;1726177;83;27670;-48
2023/11/17 05:01:39;;;;;;;17.15;10.48;;;;;;;2.48;91.29;99779.29;1726362;83;25769;-48
2023/11/17 05:04:07;;;;;;;14.07;9.45;;;;;;;2.48;91.19;99780.08;1726477;83;25418;-48
2023/11/17 05:06:36;;;;;;;15.10;9.08;;;;;;;2.48;91.09;99777.95;1694539;83;25650;-49
2023/11/17 05:09:10;;;;;;;19.00;10.53;;;;;;;2.49;91.15;99779.02;1726638;83;25587;-47
2023/11/17 05:11:32;;;;;;;17.15;9.70;;;;;;;2.49;91.10;99782.23;1699786;83;27475;-48
2023/11/17 05:14:00;;;;;;;16.55;10.18;;;;;;;2.50;91.14;99781.94;1726360;83;25391;-49
2023/11/17 05:16:29;;;;;;;13.95;8.88;;;;;;;2.50;91.10;99785.95;1726430;83;25639;-48
2023/11/17 05:18:56;;;;;;;13.90;9.20;;;;;;;2.51;91.03;99787.56;1726429;83;25483;-47
2023/11/17 05:21:25;;;;;;;16.67;10.58;;;;;;;2.53;91.04;99786.75;1725969;83;25477;-49
2023/11/17 05:23:52;;;;;;;13.70;8.90;;;;;;;2.53;90.88;99785.96;1726455;83;27442;-48
2023/11/17 05:26:20;;;;;;;12.93;8.48;;;;;;;2.53;90.82;99782.75;1726348;83;25407;-48
2023/11/17 05:28:46;;;;;;;12.28;8.80;;;;;;;2.53;90.76;99777.41;1738981;82;25540;-48
2023/11/17 05:31:15;;;;;;;12.50;7.97;;;;;;;2.53;90.70;99784.62;1741078;82;26124;-49
2023/11/17 05:33:42;;;;;;;17.17;9.13;;;;;;;2.54;90.65;99780.90;1741090;82;25739;-48
2023/11/17 05:36:09;;;;;;;16.75;8.55;;;;;;;2.53;90.60;99785.41;1741036;82;27565;-47
2023/11/17 05:38:38;;;;;;;15.40;9.03;;;;;;;2.53;90.38;99781.95;1741013;82;25587;-48
2023/11/17 05:41:08;;;;;;;13.53;9.13;;;;;;;2.51;90.34;99782.77;1741209;82;25561;-47
2023/11/17 05:43:36;;;;;;;17.15;9.53;;;;;;;2.52;90.53;99779.83;1741110;82;25851;-47
2023/11/17 05:46:05;;;;;;;15.95;8.88;;;;;;;2.52;90.43;99783.84;1741211;82;25488;-52
2023/11/17 05:48:32;;;;;;;12.82;8.33;;;;;;;2.51;90.32;99782.77;1712485;82;27590;-55
2023/11/17 05:51:05;;;;;;;13.25;8.63;;;;;;;2.49;90.15;99780.36;1741045;82;25788;-52
2023/11/17 05:53:29;;;;;;;11.25;8.15;;;;;;;2.48;90.23;99781.41;1711050;82;25571;-52
2023/11/17 05:55:55;;;;;;;12.05;8.45;;;;;;;2.49;90.32;99776.90;1741073;82;25627;-52
2023/11/17 05:58:22;;;;;;;14.13;8.10;;;;;;;2.49;90.12;99779.56;1741219;82;25497;-48
2023/11/17 06:00:50;;;;;;;12.07;7.67;;;;;;;2.47;90.01;99781.17;1741064;82;27654;-48
2023/11/17 06:03:17;;;;;;;12.98;8.60;;;;;;;2.47;90.00;99779.83;1740953;82;25467;-48
2023/11/17 06:05:44;;;;;;;13.20;8.15;;;;;;;2.48;90.12;99781.95;1741075;82;25464;-49
2023/11/17 06:08:11;;;;;;;13.58;8.80;;;;;;;2.49;90.14;99784.91;1741037;82;26047;-48
2023/11/17 06:10:37;;;;;;;15.10;8.43;;;;;;;2.50;90.07;99789.16;1711587;82;25619;-48
2023/11/17 06:13:04;;;;;;;12.37;7.80;;;;;;;2.48;89.89;99788.63;1741037;82;28125;-48
2023/11/17 06:15:31;;;;;;;12.70;8.78;;;;;;;2.46;89.97;99794.23;1711497;82;25612;-48
2023/11/17 06:17:58;;;;;;;14.85;8.08;;;;;;;2.45;89.89;99795.29;1712001;82;25439;-48
2023/11/17 06:20:28;;;;;;;13.22;8.50;;;;;;;2.44;89.91;99791.03;1740997;82;25510;-49
2023/11/17 06:22:54;;;;;;;12.80;7.85;;;;;;;2.43;89.99;99798.25;1741170;82;25378;-48
2023/11/17 06:25:21;;;;;;;12.47;8.10;;;;;;;2.53;90.09;99808.66;1741081;82;27507;-47
2023/11/17 06:27:49;;;;;;;14.15;8.15;;;;;;;2.43;89.79;99801.44;1739856;82;25769;-48
2023/11/17 06:30:17;;;;;;;13.53;8.70;;;;;;;2.42;89.93;99804.65;1740079;82;25979;-48
2023/11/17 06:32:44;;;;;;;12.88;8.50;;;;;;;2.43;89.90;99798.77;1740136;82;25697;-49
2023/11/17 06:35:13;;;;;;;15.25;8.30;;;;;;;2.42;89.98;99799.85;1740196;82;25721;-48
2023/11/17 06:37:40;;;;;;;13.68;8.15;;;;;;;2.42;89.96;99800.64;1740175;82;27492;-49
2023/11/17 06:40:10;;;;;;;13.83;9.30;;;;;;;2.43;90.04;99805.44;1740104;82;25686;-48
2023/11/17 06:42:39;;;;;;;14.45;9.18;;;;;;;2.42;89.98;99806.52;1740933;82;25560;-49
2023/11/17 06:45:11;;;;;;;12.82;8.25;;;;;;;2.40;90.04;99800.11;1741052;82;25505;-48
2023/11/17 06:47:37;;;;;;;13.55;8.98;;;;;;;2.40;90.00;99797.45;1740861;82;25582;-48
2023/11/17 06:50:06;;;;;;;16.12;10.30;;;;;;;2.40;90.06;99796.11;1741065;82;27513;-49
2023/11/17 06:52:33;;;;;;;15.00;8.60;;;;;;;2.43;90.26;99799.59;1741093;82;25760;-48
2023/11/17 06:55:00;;;;;;;12.18;8.45;;;;;;;2.45;90.12;99799.84;1741023;82;25642;-49
2023/11/17 06:57:27;;;;;;;14.47;8.63;;;;;;;2.43;89.84;99810.27;1740975;82;25610;-48
2023/11/17 06:59:54;;;;;;;13.43;8.88;;;;;;;2.41;89.86;99808.38;1741096;82;25468;-49
2023/11/17 07:02:21;;;;;;;16.70;8.88;;;;;;;2.41;89.99;99808.38;1741092;82;27494;-52
2023/11/17 07:04:48;;;;;;;13.62;8.95;;;;;;;2.43;90.19;99804.11;1740991;82;25824;-52
2023/11/17 07:07:15;;;;;;;15.38;9.63;;;;;;;2.46;90.23;99813.47;1741055;82;25763;-53
2023/11/17 07:09:42;;;;;;;13.93;9.38;;;;;;;2.45;90.17;99812.64;1741036;82;25646;-53
2023/11/17 07:12:10;;;;;;;18.45;10.40;;;;;;;2.46;90.24;99811.59;1740871;82;25409;-51
2023/11/17 07:14:37;;;;;;;18.23;10.30;;;;;;;2.48;90.30;99811.33;1740080;82;28531;-49
2023/11/17 07:17:05;;;;;;;15.50;9.85;;;;;;;2.48;90.28;99804.65;1740900;82;25607;-52
2023/11/17 07:19:37;;;;;;;16.27;9.80;;;;;;;2.50;90.49;99813.98;1712265;82;25759;-50
2023/11/17 07:22:01;;;;;;;15.18;10.18;;;;;;;2.52;90.47;99817.72;1739773;82;25562;-48
2023/11/17 07:24:29;;;;;;;16.85;10.75;;;;;;;2.56;90.66;99824.15;1741088;82;25411;-49
2023/11/17 07:26:56;;;;;;;15.23;10.20;;;;;;;2.57;90.35;99821.72;1740988;82;27577;-49
2023/11/17 07:29:23;;;;;;;19.48;10.88;;;;;;;2.58;90.40;99824.67;1741286;82;25768;-48
2023/11/17 07:31:50;;;;;;;16.05;10.38;;;;;;;2.58;90.46;99830.81;1741563;82;25501;-49
2023/11/17 07:34:18;;;;;;;17.02;10.93;;;;;;;2.58;90.42;99830.81;1741525;82;25551;-50
2023/11/17 07:36:49;;;;;;;16.48;11.00;;;;;;;2.58;90.45;99832.14;1741539;82;25472;-48
2023/11/17 07:39:23;;;;;;;17.73;10.93;;;;;;;2.60;90.59;99833.22;1741549;82;28063;-49
2023/11/17 07:41:50;;;;;;;17.10;10.93;;;;;;;2.60;90.62;99842.02;1741512;82;25612;-49
2023/11/17 07:44:17;;;;;;;17.05;11.30;;;;;;;2.61;90.78;99843.63;1741588;82;25405;-50
2023/11/17 07:46:46;;;;;;;15.10;9.85;;;;;;;2.61;90.66;99841.50;1741504;82;25606;-49
2023/11/17 07:49:12;;;;;;;15.20;10.38;;;;;;;2.64;91.17;99837.48;1741781;82;25452;-49
2023/11/17 07:51:39;;;;;;;16.17;10.65;;;;;;;2.64;91.00;99834.81;1741740;82;27552;-48
2023/11/17 07:54:06;;;;;;;18.45;11.12;;;;;;;2.66;91.19;99840.71;1741604;82;25788;-48
2023/11/17 07:56:33;;;;;;;16.05;10.10;;;;;;;2.68;91.07;99844.70;1741697;82;25412;-49
2023/11/17 07:58:59;;;;;;;17.42;11.38;;;;;;;2.66;90.75;99846.05;1741677;82;25558;-51
2023/11/17 08:01:26;;;;;;;18.10;11.35;;;;;;;2.61;90.79;99842.84;1741733;82;25638;-49
2023/11/17 08:03:53;;;;;;;19.52;11.78;;;;;;;2.62;90.95;99849.77;1741732;82;27512;-50
2023/11/17 08:06:21;;;;;;;19.75;11.90;;;;;;;2.63;91.08;99847.92;1741613;82;25578;-49
2023/11/17 08:08:48;;;;;;;16.62;10.60;;;;;;;2.65;91.28;99852.45;1741731;82;25486;-49
2023/11/17 08:11:15;;;;;;;15.68;11.22;;;;;;;2.64;91.28;99854.84;1741678;82;26103;-50
2023/11/17 08:13:42;;;;;;;17.50;11.57;;;;;;;2.66;91.50;99850.85;1741705;82;25720;-49
2023/11/17 08:16:10;;;;;;;15.85;10.82;;;;;;;2.68;91.60;99852.72;1741685;82;27846;-49
2023/11/17 08:18:38;;;;;;;46.48;32.48;;;;;;;2.68;91.48;99859.94;1741624;82;25461;-49
2023/11/17 08:21:06;;;;;;;73.22;44.18;;;;;;;2.70;91.75;99851.91;1741768;82;25474;-51
2023/11/17 08:23:33;;;;;;;27.62;17.70;;;;;;;2.72;91.64;99864.45;1741742;82;26052;-55
2023/11/17 08:26:01;;;;;;;16.93;11.85;;;;;;;2.76;91.85;99861.53;1716368;82;25842;-52
2023/11/17 08:28:28;;;;;;;18.15;11.78;;;;;;;2.79;91.99;99862.86;1714543;83;29214;-50
2023/11/17 08:30:58;;;;;;;15.55;10.25;;;;;;;2.82;91.86;99870.87;1711612;83;25818;-49
2023/11/17 08:33:25;;;;;;;17.87;11.75;;;;;;;2.83;91.60;99873.29;1711710;83;25480;-49
2023/11/17 08:35:53;;;;;;;15.78;11.97;;;;;;;2.85;91.63;99873.81;1711605;83;26171;-48
2023/11/17 08:38:20;;;;;;;17.15;11.60;;;;;;;2.87;91.49;99880.23;1711676;83;25601;-50
2023/11/17 08:40:47;;;;;;;17.40;11.70;;;;;;;2.89;91.77;99878.87;1711652;83;27524;-52
2023/11/17 08:43:18;;;;;;;16.05;11.63;;;;;;;2.93;92.11;99871.16;1711526;83;25831;-51
2023/11/17 08:45:44;;;;;;;17.52;11.63;;;;;;;2.97;92.17;99873.00;1711366;83;25486;-48
2023/11/17 08:48:11;;;;;;;17.73;11.28;;;;;;;2.99;92.14;99879.41;1711621;83;25906;-50
2023/11/17 08:50:37;;;;;;;16.60;11.05;;;;;;;2.94;91.50;99881.55;1711757;83;25676;-51
2023/11/17 08:53:04;;;;;;;16.93;11.53;;;;;;;2.92;91.70;99882.36;1722839;82;27564;-48
2023/11/17 08:55:31;;;;;;;15.70;10.95;;;;;;;2.92;91.82;99882.36;1733965;82;25572;-50
2023/11/17 08:57:57;;;;;;;15.88;11.22;;;;;;;2.94;92.00;99885.55;1734010;82;25575;-52
2023/11/17 09:00:25;;;;;;;17.57;11.68;;;;;;;2.95;92.07;99887.71;1733991;82;26196;-51
2023/11/17 09:02:54;;;;;;;14.70;11.00;;;;;;;2.96;92.19;99886.63;1734029;82;25553;-49
2023/11/17 09:05:22;;;;;;;15.40;11.38;;;;;;;2.96;92.03;99887.96;1734302;82;27620;-49
2023/11/17 09:07:50;;;;;;;17.42;10.93;;;;;;;2.97;91.97;99887.70;1733955;82;25603;-49
2023/11/17 09:10:20;;;;;;;16.42;11.45;;;;;;;2.95;91.67;99886.37;1734304;82;25643;-51
2023/11/17 09:12:49;;;;;;;18.62;11.43;;;;;;;2.92;91.36;99893.05;1734038;82;25501;-50
2023/11/17 09:15:23;;;;;;;16.00;10.63;;;;;;;2.88;91.48;99891.98;1733792;82;25486;-49
2023/11/17 09:17:51;;;;;;;15.40;10.90;;;;;;;2.85;90.99;99890.39;1734097;82;27482;-50
2023/11/17 09:20:23;;;;;;;17.73;11.18;;;;;;;2.79;91.04;99887.72;1733961;82;25700;-50
2023/11/17 09:25:31;;;;;;;16.10;11.15;;;;;;;2.77;91.45;99890.38;1780662;77;27125;-49
2023/11/17 09:27:58;;;;;;;15.88;11.88;;;;;;;2.74;91.50;99886.37;1770870;80;26284;-51
2023/11/17 09:30:30;;;;;;;15.43;10.80;;;;;;;2.73;91.30;99887.44;1772753;80;27543;-51
2023/11/17 09:32:59;;;;;;;17.27;11.75;;;;;;;2.70;91.12;99888.50;1786461;80;25819;-55
2023/11/17 09:35:27;;;;;;;15.85;12.10;;;;;;;2.68;91.34;99891.98;1801516;79;25562;-50
2023/11/17 09:38:00;;;;;;;14.93;10.68;;;;;;;2.71;91.78;99896.25;1795758;79;25468;-53
2023/11/17 09:40:33;;;;;;;16.85;11.12;;;;;;;2.76;91.96;99894.13;1795881;79;25543;-49
2023/11/17 09:43:22;;;;;;;15.23;10.53;;;;;;;2.73;91.65;99886.64;1795827;79;27556;-49
2023/11/17 09:45:54;;;;;;;13.22;9.93;;;;;;;2.71;91.32;99890.12;1786128;80;25736;-51
2023/11/17 09:48:23;;;;;;;16.70;11.22;;;;;;;2.71;91.49;99886.11;1792226;80;25374;-49
2023/11/17 09:50:51;;;;;;;15.15;10.82;;;;;;;2.73;91.63;99890.11;1787063;80;26093;-49
2023/11/17 09:53:20;;;;;;;14.70;11.43;;;;;;;2.75;91.78;99891.97;1801517;79;25580;-49
2023/11/17 09:55:48;;;;;;;15.18;10.45;;;;;;;2.80;92.03;99892.52;1795946;79;27510;-48
2023/11/17 09:58:15;;;;;;;14.63;11.63;;;;;;;2.79;91.53;99882.89;1795947;79;25381;-49
2023/11/17 10:00:46;;;;;;;12.23;9.68;;;;;;;2.78;91.45;99887.44;1795807;79;25407;-49
2023/11/17 10:03:13;;;;;;;14.98;10.78;;;;;;;2.77;91.30;99887.16;1786940;80;25640;-50
2023/11/17 10:05:41;;;;;;;16.67;10.90;;;;;;;2.75;91.21;99885.84;1792177;80;25391;-50
2023/11/17 10:08:16;;;;;;;14.43;9.73;;;;;;;2.74;91.34;99885.05;1786829;80;27426;-49
2023/11/17 10:10:47;;;;;;;12.53;10.08;;;;;;;2.73;91.11;99876.75;1793149;80;25608;-49
2023/11/17 10:13:17;;;;;;;16.55;10.95;;;;;;;2.73;91.12;99880.76;1792913;79;25609;-50
2023/11/17 10:15:50;;;;;;;15.68;10.78;;;;;;;2.72;91.18;99883.69;1793364;79;25556;-48
2023/11/17 10:18:25;;;;;;;15.85;10.85;;;;;;;2.74;91.53;99889.56;1793263;80;25549;-48
2023/11/17 10:20:54;;;;;;;14.15;10.93;;;;;;;2.75;91.57;99883.16;1792539;80;27489;-49
2023/11/17 10:23:20;;;;;;;16.62;12.30;;;;;;;2.76;91.53;99889.58;1793157;80;25407;-48
2023/11/17 10:25:54;;;;;;;18.35;13.32;;;;;;;2.74;91.38;99891.72;1793389;78;25400;-48
2023/11/17 10:28:24;;;;;;;18.80;12.55;;;;;;;2.76;91.62;99892.25;1795507;79;25545;-49
2023/11/17 10:30:58;;;;;;;18.12;12.85;;;;;;;2.78;91.54;99898.66;1817993;78;25409;-49
2023/11/17 10:33:42;;;;;;;18.27;12.45;;;;;;;2.77;91.48;99890.38;1815239;79;28449;-52
2023/11/17 10:36:15;;;;;;;17.20;13.13;;;;;;;2.78;91.50;99890.11;1795525;79;25608;-49
2023/11/17 10:38:45;;;;;;;23.92;12.85;;;;;;;2.79;91.59;99891.72;1795505;79;25611;-48
2023/11/17 10:41:30;;;;;;;;;;;;;;;2.84;91.64;99898.12;1820596;78;25542;-49
2023/11/17 10:43:59;;;;;;;21.42;14.20;;;;;;;2.83;91.32;99895.99;1818152;78;25567;-49
2023/11/17 10:46:44;;;;;;;24.20;16.67;;;;;;;2.80;91.29;99891.97;1790077;80;27472;-52
2023/11/17 10:49:19;;;;;;;15.30;12.30;;;;;;;2.80;91.24;99903.99;1789855;80;25575;-48
2023/11/17 10:51:51;;;;;;;15.68;11.80;;;;;;;2.82;91.16;99902.39;1789876;80;25601;-53
2023/11/17 10:54:19;;;;;;;18.20;12.47;;;;;;;2.84;91.17;99902.13;1789924;80;25588;-51
2023/11/17 10:56:48;;;;;;;16.62;12.10;;;;;;;2.84;91.05;99901.59;1789858;80;25536;-51
2023/11/17 10:59:18;;;;;;;18.02;13.25;;;;;;;2.84;91.16;99902.92;1790140;80;27452;-51
2023/11/17 11:01:47;;;;;;;17.35;12.10;;;;;;;2.84;91.14;99905.59;1789697;80;25265;-49
2023/11/17 11:04:19;;;;;;;17.67;12.20;;;;;;;2.85;91.01;99903.20;1789895;80;25421;-50
2023/11/17 11:11:54;;;;;;;15.13;10.78;;;;;;;2.83;91.02;99904.52;1750598;80;25903;-48
2023/11/17 11:14:21;;;;;;;12.75;9.85;;;;;;;2.84;91.19;99908.27;1750269;82;25412;-52
2023/11/17 11:16:48;;;;;;;12.80;9.20;;;;;;;2.84;90.95;99907.47;1750337;82;25598;-51
2023/11/17 11:19:16;;;;;;;12.60;9.65;;;;;;;2.82;90.87;99909.07;1750006;82;25572;-53
2023/11/17 11:21:48;;;;;;;13.28;10.30;;;;;;;2.80;90.99;99903.20;1750082;82;25459;-49
2023/11/17 11:24:14;;;;;;;13.72;10.13;;;;;;;2.78;91.18;99910.14;1728180;83;27617;-48
2023/11/17 11:26:41;;;;;;;13.65;10.40;;;;;;;2.78;91.10;99913.36;1718568;83;25588;-51
2023/11/17 11:29:08;;;;;;;11.20;9.60;;;;;;;2.75;91.02;99916.55;1728489;82;25618;-50
2023/11/17 11:31:37;;;;;;;10.82;8.75;;;;;;;2.74;91.26;99907.75;1728495;83;26094;-50
2023/11/17 11:34:05;;;;;;;11.88;8.73;;;;;;;2.74;91.20;99906.92;1750105;82;25398;-51
2023/11/17 11:36:31;;;;;;;12.95;9.83;;;;;;;2.69;91.07;99904.25;1750093;82;26876;-49
2023/11/17 11:38:59;;;;;;;12.50;9.05;;;;;;;2.70;91.41;99900.52;1750031;81;25558;-49
2023/11/17 11:41:27;;;;;;;12.58;8.45;;;;;;;2.73;91.56;99911.47;1750043;82;25437;-53
2023/11/17 11:43:54;;;;;;;11.78;9.48;;;;;;;2.74;91.52;99917.61;1750042;82;25911;-49